Terminal Aerodrome Forecast
Issued by NWS

Current Version | Previous Version | Text Only | Print | Product List | Glossary Off
Versions: 1 2 3 4 5 6 7 8 9 10 11 12 13 14 15 16 17 18 19

068
FTUS41 KPBZ 161739
TAFHLG
TAF
KHLG 161739Z 1618/1718 10004KT P6SM OVC050
     FM162100 10004KT P6SM OVC025
     FM170000 10004KT 3SM BR OVC010
     FM170600 11003KT 2SM -RA BR OVC006
     FM171600 18008KT 3SM -RA BR OVC006=

USA.gov is the U.S. government's official web portal to all federal, state and local government web resources and services.